Portada
METAR-TAF:

METAR-TAF

Aeropuertos :

Orange, Francia

latitud: 44-08N, longitud: 004-50E, altitud: 60 m

Observación

El informe se hizo hace 29 minutos, a las 14:00 UTC
Viento 26 kt del norte-noroeste con ráfagas de 36 kt
Temperatura 13°C
Humedad 44%
Presión 1028 hPa
Visibilidad 10 km o más
sin nubes por debajo de 1500 m y sin presencia de cumulonimbus.

METAR: LFMO 031400Z AUTO 34026G36KT CAVOK 13/01 Q1028 NOSIG

Hora: 15:29 (14:29 UTC)

Pronóstico

El informe se hizo hace 6 horas y 29 minutos, a las 08:00 UTC
Pronóstico válido del 03 a las 09 UTC al 04 a las 09 UTC
Viento 25 kt del norte con ráfagas de 40 kt
Visibilidad 10 km o más
sin nubes por debajo de 1500 m y sin presencia de cumulonimbus.
Probabilidad 40% :
Temporalmente
del 04 a las 00 UTC al 04 a las 09 UTC
Viento 30 kt del norte con ráfagas de 50 kt

TAF: LFMO 030800Z 0309/0409 35025G40KT CAVOK TX13/0314Z TN07/0405Z PROB40 TEMPO 0400/0409 35030G50KT

Observaciones y pronósticos meteorológicos de más de 4000 aeropuertos (mensajes METAR y TAF).

Los puntos amarillos y rojos representan las estaciones disponibles.

Ponga el ratón en el punto deseado para ver el nombre de la estación.

Haga clic para ver las observaciones y los pronósticos meteorológicos.

Para cambiar el mapa : haga clic en los botones verdes con una cruz de color negro para hacer un zoom, en el botón verde con un guión para alejar o en las flechas verdes para mapas adyacentes.


METAR-TAF: